createdAt,value
2022-11-09T00:01:02.931Z,4.43
2022-11-09T00:06:04.241Z,4.85
2022-11-09T00:11:07.775Z,4.38
2022-11-09T00:16:11.369Z,3.00
2022-11-09T00:21:21.414Z,3.93
2022-11-09T00:26:23.392Z,3.42
2022-11-09T00:31:25.002Z,3.40
2022-11-09T00:36:28.066Z,3.25
2022-11-09T00:41:29.452Z,3.25
2022-11-09T00:46:31.084Z,3.40
2022-11-09T00:51:32.593Z,3.22
2022-11-09T00:56:33.857Z,3.72
2022-11-09T01:01:35.290Z,4.22
2022-11-09T01:06:36.688Z,4.10
2022-11-09T01:11:38.216Z,3.60
2022-11-09T01:16:39.519Z,3.05
2022-11-09T01:21:41.102Z,2.80
2022-11-09T01:26:42.423Z,3.78
2022-11-09T01:31:43.729Z,3.88
2022-11-09T01:36:44.994Z,3.03
2022-11-09T01:41:47.000Z,3.55
2022-11-09T01:46:51.005Z,3.92
2022-11-09T01:52:04.348Z,3.78
2022-11-09T01:57:10.868Z,3.47
2022-11-09T02:02:12.855Z,4.70
2022-11-09T02:07:14.723Z,4.47
2022-11-09T02:12:18.069Z,4.32
2022-11-09T02:17:19.999Z,3.97
2022-11-09T02:22:21.634Z,3.17
2022-11-09T02:27:24.154Z,3.35
2022-11-09T02:32:28.889Z,2.83
2022-11-09T02:37:37.684Z,2.47
2022-11-09T02:42:39.164Z,2.58
2022-11-09T02:47:40.517Z,2.40
2022-11-09T02:52:41.821Z,2.20
2022-11-09T02:57:43.171Z,2.10
2022-11-09T03:02:44.551Z,2.03
2022-11-09T03:07:45.873Z,1.67
2022-11-09T03:12:47.197Z,1.50
2022-11-09T03:17:48.473Z,1.70
2022-11-09T03:22:49.743Z,1.48
2022-11-09T03:27:57.268Z,1.35
2022-11-09T03:33:09.951Z,1.25
2022-11-09T03:38:11.315Z,1.25
2022-11-09T03:43:12.720Z,1.08
2022-11-09T03:48:14.028Z,1.30
2022-11-09T03:53:15.366Z,0.82
2022-11-09T03:58:16.788Z,1.40
2022-11-09T04:03:18.253Z,0.93
2022-11-09T04:08:19.711Z,1.50
2022-11-09T04:13:21.165Z,1.70
2022-11-09T04:18:22.693Z,1.60
2022-11-09T04:23:23.986Z,1.60
2022-11-09T04:28:25.634Z,1.80
2022-11-09T04:33:26.980Z,1.50
2022-11-09T04:38:28.407Z,1.67
2022-11-09T04:43:29.910Z,1.80
2022-11-09T04:48:32.687Z,1.38
2022-11-09T04:53:35.032Z,1.35
2022-11-09T04:58:36.342Z,1.67
2022-11-09T05:03:37.979Z,1.50
2022-11-09T05:08:39.308Z,1.70
2022-11-09T05:13:40.603Z,1.50
2022-11-09T05:18:42.020Z,1.50
2022-11-09T05:23:58.863Z,1.80
2022-11-09T05:29:02.512Z,2.40
2022-11-09T05:34:05.210Z,2.10
2022-11-09T05:39:06.537Z,2.47
2022-11-09T05:44:07.915Z,2.10
2022-11-09T05:49:09.277Z,2.60
2022-11-09T05:54:10.629Z,2.53
2022-11-09T05:59:12.077Z,2.50
2022-11-09T06:04:13.366Z,2.10
2022-11-09T06:09:14.613Z,2.17
2022-11-09T06:14:16.034Z,2.53
2022-11-09T06:19:17.334Z,3.03
2022-11-09T06:24:18.628Z,3.60
2022-11-09T06:29:20.051Z,3.25
2022-11-09T06:34:21.359Z,3.55
2022-11-09T06:39:23.171Z,4.10
2022-11-09T06:44:24.453Z,5.47
2022-11-09T06:49:25.743Z,5.20
2022-11-09T06:54:27.975Z,6.22
2022-11-09T06:59:29.471Z,5.75
2022-11-09T07:04:30.736Z,5.72
2022-11-09T07:09:33.270Z,5.05
2022-11-09T07:14:34.581Z,5.50
2022-11-09T07:19:36.923Z,4.43
2022-11-09T07:24:38.178Z,5.47
2022-11-09T07:29:39.450Z,4.47
2022-11-09T07:34:40.746Z,5.30
2022-11-09T07:39:42.069Z,4.22
2022-11-09T07:44:43.358Z,4.47
2022-11-09T07:49:45.010Z,4.57
2022-11-09T07:54:51.832Z,4.55
2022-11-09T07:59:53.579Z,5.38
2022-11-09T08:04:54.939Z,4.50
2022-11-09T08:09:56.276Z,4.20
2022-11-09T08:14:57.654Z,3.88
2022-11-09T08:19:58.928Z,4.35
2022-11-09T08:25:00.400Z,4.32
2022-11-09T08:30:01.711Z,4.07
2022-11-09T08:35:03.748Z,4.05
2022-11-09T08:40:06.510Z,3.67
2022-11-09T08:45:08.402Z,4.22
2022-11-09T08:50:11.160Z,3.92
2022-11-09T08:55:12.511Z,3.80
2022-11-09T09:00:14.759Z,4.63
2022-11-09T09:05:16.986Z,4.07
2022-11-09T09:10:18.921Z,4.30
2022-11-09T09:15:21.595Z,4.00
2022-11-09T09:20:22.973Z,3.17
2022-11-09T09:25:24.684Z,3.22
2022-11-09T09:30:26.023Z,2.63
2022-11-09T09:35:28.473Z,2.42
2022-11-09T09:40:48.322Z,2.45
2022-11-09T09:45:52.924Z,2.33
2022-11-09T09:51:01.257Z,2.00
2022-11-09T09:56:10.856Z,2.30
2022-11-09T10:01:20.999Z,1.48
2022-11-09T10:06:58.923Z,1.23
2022-11-09T10:12:15.868Z,0.80
2022-11-09T10:17:35.507Z,1.02
2022-11-09T10:23:03.282Z,0.70
2022-11-09T10:28:13.251Z,0.60
2022-11-09T10:33:21.344Z,0.65
2022-11-09T10:43:30.305Z,0.60
2022-11-09T10:48:40.122Z,0.60
2022-11-09T10:53:41.443Z,0.38
2022-11-09T10:59:01.049Z,0.45
2022-11-09T11:04:20.790Z,0.63
2022-11-09T11:09:23.348Z,0.40
2022-11-09T11:14:36.336Z,0.53
2022-11-09T11:19:44.575Z,0.60
2022-11-09T11:24:55.069Z,0.60
2022-11-09T11:30:05.446Z,0.70
2022-11-09T11:35:16.433Z,0.47
2022-11-09T11:40:50.611Z,0.68
2022-11-09T11:46:08.722Z,0.90
2022-11-09T11:51:19.105Z,0.73
2022-11-09T11:56:22.664Z,0.93
2022-11-09T12:01:50.563Z,0.98
2022-11-09T12:07:19.766Z,0.90
2022-11-09T12:12:34.141Z,0.82
2022-11-09T12:17:59.009Z,0.65
2022-11-09T12:23:25.435Z,0.50
2022-11-09T12:28:29.830Z,0.70
2022-11-09T12:33:58.534Z,1.25
2022-11-09T12:39:25.975Z,1.10
2022-11-09T12:44:37.604Z,0.60
2022-11-09T12:49:42.546Z,0.70
2022-11-09T12:54:49.716Z,0.63
2022-11-09T12:59:53.328Z,0.98
2022-11-09T13:04:57.313Z,0.95
2022-11-09T13:10:01.694Z,1.02
2022-11-09T13:15:24.781Z,0.70
2022-11-09T13:25:57.567Z,1.00
2022-11-09T13:31:04.188Z,0.95
2022-11-09T13:36:08.296Z,1.15
2022-11-09T13:46:36.255Z,1.15
2022-11-09T13:51:48.017Z,1.10
2022-11-09T13:56:50.422Z,1.08
2022-11-09T14:01:54.522Z,1.27
2022-11-09T14:12:28.057Z,0.90
2022-11-09T14:17:45.280Z,1.10
2022-11-09T14:22:46.655Z,1.58
2022-11-09T14:27:57.308Z,1.42
2022-11-09T14:32:59.130Z,0.75
2022-11-09T14:38:14.415Z,1.23
2022-11-09T14:43:29.168Z,1.05
2022-11-09T14:48:32.339Z,0.98
2022-11-09T14:53:36.657Z,0.77
2022-11-09T14:58:42.602Z,1.10
2022-11-09T15:03:44.872Z,0.90
2022-11-09T15:08:58.616Z,0.70
2022-11-09T15:14:00.190Z,0.90
2022-11-09T15:19:01.583Z,1.20
2022-11-09T15:24:08.560Z,1.15
2022-11-09T15:29:40.761Z,0.93
2022-11-09T15:34:51.141Z,1.10
2022-11-09T15:39:52.690Z,1.20
2022-11-09T15:44:56.949Z,0.82
2022-11-09T15:55:00.845Z,1.10
2022-11-09T16:00:07.820Z,1.13
2022-11-09T16:05:13.084Z,1.90
2022-11-09T16:10:15.429Z,1.77
2022-11-09T16:15:16.755Z,1.25
2022-11-09T16:20:19.584Z,1.08
2022-11-09T16:25:21.646Z,1.50
2022-11-09T16:30:22.958Z,0.90
2022-11-09T16:35:27.312Z,1.00
2022-11-09T16:40:31.616Z,1.00
2022-11-09T16:45:33.873Z,1.20
2022-11-09T16:50:35.355Z,0.80
2022-11-09T16:55:39.675Z,0.95
2022-11-09T17:06:11.237Z,1.20
2022-11-09T17:11:14.894Z,1.13
2022-11-09T17:16:20.845Z,0.83
2022-11-09T17:21:24.253Z,0.93
2022-11-09T17:26:26.467Z,1.00
2022-11-09T17:31:27.819Z,1.27
2022-11-09T17:36:56.798Z,1.50
2022-11-09T17:41:52.020Z,1.30
2022-11-09T17:46:55.752Z,1.38
2022-11-09T17:51:57.639Z,1.80
2022-11-09T17:57:00.864Z,1.67
2022-11-09T18:02:02.205Z,2.15
2022-11-09T18:07:03.670Z,1.50
2022-11-09T18:12:05.353Z,2.50
2022-11-09T18:17:06.626Z,2.40
2022-11-09T18:22:12.512Z,1.75
2022-11-09T18:27:14.236Z,1.77
2022-11-09T18:32:15.975Z,2.40
2022-11-09T18:37:17.249Z,1.60
2022-11-09T18:42:18.551Z,3.22
2022-11-09T18:47:20.430Z,5.45
2022-11-09T18:52:21.856Z,2.28
2022-11-09T18:57:23.144Z,2.38
2022-11-09T19:02:24.473Z,2.47
2022-11-09T19:07:25.762Z,2.50
2022-11-09T19:12:29.416Z,1.92
2022-11-09T19:17:30.754Z,3.23
2022-11-09T19:22:36.451Z,1.95
2022-11-09T19:27:37.728Z,1.92
2022-11-09T19:32:39.189Z,1.67
2022-11-09T19:37:40.542Z,1.90
2022-11-09T19:42:42.092Z,2.88
2022-11-09T19:47:43.538Z,1.90
2022-11-09T19:52:44.972Z,2.22
2022-11-09T19:57:46.332Z,2.08
2022-11-09T20:02:47.614Z,2.00
2022-11-09T20:07:48.900Z,2.15
2022-11-09T20:12:50.588Z,1.92
2022-11-09T20:17:51.871Z,3.10
2022-11-09T20:22:53.160Z,2.78
2022-11-09T20:27:54.517Z,3.47
2022-11-09T20:32:55.968Z,2.40
2022-11-09T20:37:57.257Z,2.80
2022-11-09T20:42:58.740Z,2.47
2022-11-09T20:48:19.490Z,2.08
2022-11-09T20:53:21.279Z,2.28
2022-11-09T20:58:24.035Z,2.30
2022-11-09T21:03:26.747Z,2.92
2022-11-09T21:08:28.197Z,2.40
2022-11-09T21:13:29.903Z,2.72
2022-11-09T21:18:31.247Z,3.28
2022-11-09T21:23:51.348Z,2.53
2022-11-09T21:29:10.994Z,2.60
2022-11-09T21:34:12.332Z,2.58
2022-11-09T21:39:13.664Z,2.90
2022-11-09T21:44:15.223Z,2.35
2022-11-09T21:49:16.567Z,2.97
2022-11-09T21:54:17.900Z,3.10
2022-11-09T21:59:19.545Z,2.85
2022-11-09T22:04:20.819Z,2.47
2022-11-09T22:09:22.084Z,2.30
2022-11-09T22:14:42.051Z,2.20
2022-11-09T22:20:02.370Z,2.30
2022-11-09T22:25:04.183Z,2.28
2022-11-09T22:30:06.361Z,3.05
2022-11-09T22:35:08.155Z,2.30
2022-11-09T22:40:10.060Z,2.80
2022-11-09T22:45:11.332Z,2.47
2022-11-09T22:50:12.589Z,2.40
2022-11-09T22:55:14.056Z,2.50
2022-11-09T23:00:16.254Z,2.03
2022-11-09T23:05:19.913Z,2.80
2022-11-09T23:10:21.180Z,2.10
2022-11-09T23:15:22.491Z,2.75
2022-11-09T23:20:23.752Z,2.45
2022-11-09T23:25:43.691Z,3.20
2022-11-09T23:30:45.102Z,2.22
2022-11-09T23:35:46.720Z,2.35
2022-11-09T23:40:49.555Z,1.63
2022-11-09T23:45:50.849Z,1.88
2022-11-09T23:50:52.244Z,2.30
2022-11-09T23:55:54.297Z,2.00
